Strona główna
METAR-TAF:

METAR-TAF

Lotnisko :

Port lotniczy Vágar

Sørvágur, Wyspy Owcze, Dania

Szerokość geograficzna: 62-04N, Długość geograficzna: 007-17W, wysokość: 85 m

Aktualna obserwacja pogody

Raport powstał 22 minut temu, godzina 16:20 UTC
Wiatr 4 kt od północ
Temperatura 11°C
Wilgotność 82%
Ciśnienie 1006 hPa
Widzialność 10 km lub więcej

METAR: EKVG 161620Z AUTO 36004KT 9999 BKN021/// 11/08 Q1006

czas: 18:42 (16:42 UTC)

Prognoza

Raport powstał 2 godziny i 17 minut temu, godzina 14:25 UTC
Prognoza ważna od 16 godzina 15 UTC do 16 godzina 20 UTC
Wiatr 8 kt od wschodnio-północny wschód
Widzialność 10 km lub więcej
Przerywane chmury na wysokości 1500 ft
Przejściowo
od 16 godzina 15 UTC do 16 godzina 20 UTC
Przerywane chmury na wysokości 800 ft
deszcz, mżawka

TAF: EKVG 161425Z 1615/1620 07008KT 9999 BKN015 TEMPO 1615/1620 RADZ BKN008

Obserwacja i prognoza pogody dla ponad 4000 lotnisk (raport METAR i TAF).

Dostępne stacje oznaczono żółtymi i czerwonymi punktami na mapie.

Najedź kursorem aby zobaczyć nazwę stacji.

Kliknij aby zobaczyć obserwacje i prognozy pogody.

Aby zmienić mapę: kliknij na zielony przycisk z czarnym krzyżykiem, aby powiększyć; na zielony przycisk z myślnikiem, aby pomniejszyć; na zielone strzałki, aby przejść do map sąsiednich.


METAR-TAF: